sensor_id;sensor_type;location;lat;lon;timestamp;P1;durP1;ratioP1;P2;durP2;ratioP2
23140;SDS011;11739;54.750;9.124;2023-07-29T00:00:16;2.03;;;1.80;;
23140;SDS011;11739;54.750;9.124;2023-07-29T00:02:42;3.30;;;1.90;;
23140;SDS011;11739;54.750;9.124;2023-07-29T00:05:07;1.77;;;1.67;;
23140;SDS011;11739;54.750;9.124;2023-07-29T00:07:32;1.73;;;1.63;;
23140;SDS011;11739;54.750;9.124;2023-07-29T00:09:58;2.50;;;1.60;;
23140;SDS011;11739;54.750;9.124;2023-07-29T00:12:23;2.28;;;1.77;;
23140;SDS011;11739;54.750;9.124;2023-07-29T00:14:48;1.50;;;1.40;;
23140;SDS011;11739;54.750;9.124;2023-07-29T00:17:13;1.50;;;1.40;;
23140;SDS011;11739;54.750;9.124;2023-07-29T00:19:39;1.33;;;1.23;;
23140;SDS011;11739;54.750;9.124;2023-07-29T00:22:04;2.97;;;1.52;;
23140;SDS011;11739;54.750;9.124;2023-07-29T00:24:29;1.67;;;1.50;;
23140;SDS011;11739;54.750;9.124;2023-07-29T00:26:55;1.67;;;1.58;;
23140;SDS011;11739;54.750;9.124;2023-07-29T00:29:20;1.60;;;1.50;;
23140;SDS011;11739;54.750;9.124;2023-07-29T00:31:45;2.03;;;1.83;;
23140;SDS011;11739;54.750;9.124;2023-07-29T00:34:11;1.40;;;1.30;;
23140;SDS011;11739;54.750;9.124;2023-07-29T00:36:36;1.40;;;1.30;;
23140;SDS011;11739;54.750;9.124;2023-07-29T00:39:01;1.40;;;1.30;;
23140;SDS011;11739;54.750;9.124;2023-07-29T00:41:27;1.90;;;1.80;;
23140;SDS011;11739;54.750;9.124;2023-07-29T00:43:52;1.90;;;1.80;;
23140;SDS011;11739;54.750;9.124;2023-07-29T00:46:17;1.73;;;1.63;;
23140;SDS011;11739;54.750;9.124;2023-07-29T00:48:43;1.75;;;1.50;;
23140;SDS011;11739;54.750;9.124;2023-07-29T00:51:08;1.77;;;1.67;;
23140;SDS011;11739;54.750;9.124;2023-07-29T00:53:34;1.90;;;1.80;;
23140;SDS011;11739;54.750;9.124;2023-07-29T00:55:59;1.60;;;1.50;;
23140;SDS011;11739;54.750;9.124;2023-07-29T00:58:25;1.85;;;1.75;;
23140;SDS011;11739;54.750;9.124;2023-07-29T01:00:50;2.30;;;2.03;;
23140;SDS011;11739;54.750;9.124;2023-07-29T01:03:15;1.98;;;1.70;;
23140;SDS011;11739;54.750;9.124;2023-07-29T01:11:10;1.80;;;1.70;;
23140;SDS011;11739;54.750;9.124;2023-07-29T01:13:48;1.80;;;1.70;;
23140;SDS011;11739;54.750;9.124;2023-07-29T01:18:47;1.80;;;1.70;;
23140;SDS011;11739;54.750;9.124;2023-07-29T01:21:13;1.60;;;1.50;;
23140;SDS011;11739;54.750;9.124;2023-07-29T01:23:39;1.70;;;1.60;;
23140;SDS011;11739;54.750;9.124;2023-07-29T01:26:04;1.80;;;1.70;;
23140;SDS011;11739;54.750;9.124;2023-07-29T01:28:29;1.90;;;1.80;;
23140;SDS011;11739;54.750;9.124;2023-07-29T01:33:59;2.00;;;1.77;;
23140;SDS011;11739;54.750;9.124;2023-07-29T01:36:40;1.88;;;1.77;;
23140;SDS011;11739;54.750;9.124;2023-07-29T01:39:06;2.90;;;1.70;;
23140;SDS011;11739;54.750;9.124;2023-07-29T01:41:32;1.83;;;1.73;;
23140;SDS011;11739;54.750;9.124;2023-07-29T01:43:58;1.90;;;1.80;;
23140;SDS011;11739;54.750;9.124;2023-07-29T01:46:23;1.90;;;1.80;;
23140;SDS011;11739;54.750;9.124;2023-07-29T01:48:48;2.30;;;2.10;;
23140;SDS011;11739;54.750;9.124;2023-07-29T01:51:14;2.65;;;1.98;;
23140;SDS011;11739;54.750;9.124;2023-07-29T01:53:39;2.58;;;1.70;;
23140;SDS011;11739;54.750;9.124;2023-07-29T01:56:04;2.25;;;2.08;;
23140;SDS011;11739;54.750;9.124;2023-07-29T01:58:30;1.75;;;1.65;;
23140;SDS011;11739;54.750;9.124;2023-07-29T02:00:55;1.80;;;1.70;;
23140;SDS011;11739;54.750;9.124;2023-07-29T02:03:20;2.10;;;2.00;;
23140;SDS011;11739;54.750;9.124;2023-07-29T02:05:45;1.90;;;1.80;;
23140;SDS011;11739;54.750;9.124;2023-07-29T02:08:11;2.67;;;1.90;;
23140;SDS011;11739;54.750;9.124;2023-07-29T02:10:36;2.30;;;2.10;;
23140;SDS011;11739;54.750;9.124;2023-07-29T02:13:02;2.50;;;2.30;;
23140;SDS011;11739;54.750;9.124;2023-07-29T02:15:28;2.30;;;2.10;;
23140;SDS011;11739;54.750;9.124;2023-07-29T02:17:53;2.10;;;2.00;;
23140;SDS011;11739;54.750;9.124;2023-07-29T02:20:18;2.15;;;2.03;;
23140;SDS011;11739;54.750;9.124;2023-07-29T02:22:44;2.03;;;1.80;;
23140;SDS011;11739;54.750;9.124;2023-07-29T02:25:09;2.30;;;2.20;;
23140;SDS011;11739;54.750;9.124;2023-07-29T02:27:34;2.15;;;1.90;;
23140;SDS011;11739;54.750;9.124;2023-07-29T02:29:59;1.90;;;1.80;;
23140;SDS011;11739;54.750;9.124;2023-07-29T02:32:25;2.85;;;2.20;;
23140;SDS011;11739;54.750;9.124;2023-07-29T02:34:50;2.40;;;2.03;;
23140;SDS011;11739;54.750;9.124;2023-07-29T02:37:15;2.25;;;2.05;;
23140;SDS011;11739;54.750;9.124;2023-07-29T02:39:41;1.80;;;1.70;;
23140;SDS011;11739;54.750;9.124;2023-07-29T02:42:06;2.00;;;1.90;;
23140;SDS011;11739;54.750;9.124;2023-07-29T02:44:31;1.95;;;1.85;;
23140;SDS011;11739;54.750;9.124;2023-07-29T02:46:57;2.30;;;2.10;;
23140;SDS011;11739;54.750;9.124;2023-07-29T02:49:22;3.47;;;1.90;;
23140;SDS011;11739;54.750;9.124;2023-07-29T02:51:47;2.10;;;2.00;;
23140;SDS011;11739;54.750;9.124;2023-07-29T02:54:13;1.77;;;1.67;;
23140;SDS011;11739;54.750;9.124;2023-07-29T02:56:38;2.42;;;2.22;;
23140;SDS011;11739;54.750;9.124;2023-07-29T02:59:03;2.72;;;2.10;;
23140;SDS011;11739;54.750;9.124;2023-07-29T03:01:29;1.92;;;1.83;;
23140;SDS011;11739;54.750;9.124;2023-07-29T03:03:54;2.40;;;2.30;;
23140;SDS011;11739;54.750;9.124;2023-07-29T03:06:19;2.50;;;2.30;;
23140;SDS011;11739;54.750;9.124;2023-07-29T03:08:44;2.45;;;2.10;;
23140;SDS011;11739;54.750;9.124;2023-07-29T03:11:13;2.83;;;2.60;;
23140;SDS011;11739;54.750;9.124;2023-07-29T03:13:40;2.30;;;2.10;;
23140;SDS011;11739;54.750;9.124;2023-07-29T03:18:32;2.53;;;2.33;;
23140;SDS011;11739;54.750;9.124;2023-07-29T03:20:57;2.65;;;2.45;;
23140;SDS011;11739;54.750;9.124;2023-07-29T03:23:22;2.40;;;2.28;;
23140;SDS011;11739;54.750;9.124;2023-07-29T03:25:48;2.70;;;2.50;;
23140;SDS011;11739;54.750;9.124;2023-07-29T03:28:14;2.28;;;2.17;;
23140;SDS011;11739;54.750;9.124;2023-07-29T03:30:39;2.80;;;2.60;;
23140;SDS011;11739;54.750;9.124;2023-07-29T03:33:04;2.72;;;2.53;;
23140;SDS011;11739;54.750;9.124;2023-07-29T03:35:30;3.15;;;2.83;;
23140;SDS011;11739;54.750;9.124;2023-07-29T03:37:55;2.88;;;2.58;;
23140;SDS011;11739;54.750;9.124;2023-07-29T03:40:20;2.80;;;2.60;;
23140;SDS011;11739;54.750;9.124;2023-07-29T03:42:46;3.90;;;2.65;;
23140;SDS011;11739;54.750;9.124;2023-07-29T03:45:11;2.60;;;2.40;;
23140;SDS011;11739;54.750;9.124;2023-07-29T03:47:36;2.90;;;2.67;;
23140;SDS011;11739;54.750;9.124;2023-07-29T03:50:02;3.45;;;2.63;;
23140;SDS011;11739;54.750;9.124;2023-07-29T03:52:27;2.85;;;2.65;;
23140;SDS011;11739;54.750;9.124;2023-07-29T03:54:52;2.70;;;2.50;;
23140;SDS011;11739;54.750;9.124;2023-07-29T03:57:17;3.85;;;3.17;;
23140;SDS011;11739;54.750;9.124;2023-07-29T03:59:43;3.60;;;3.30;;
23140;SDS011;11739;54.750;9.124;2023-07-29T04:02:08;3.50;;;3.13;;
23140;SDS011;11739;54.750;9.124;2023-07-29T04:04:33;3.20;;;2.90;;
23140;SDS011;11739;54.750;9.124;2023-07-29T04:06:59;3.58;;;3.28;;
23140;SDS011;11739;54.750;9.124;2023-07-29T04:09:24;3.53;;;3.22;;
23140;SDS011;11739;54.750;9.124;2023-07-29T04:11:50;3.50;;;3.20;;
23140;SDS011;11739;54.750;9.124;2023-07-29T04:14:16;4.38;;;3.50;;
23140;SDS011;11739;54.750;9.124;2023-07-29T04:16:41;4.18;;;3.30;;
23140;SDS011;11739;54.750;9.124;2023-07-29T04:19:06;4.20;;;3.80;;
23140;SDS011;11739;54.750;9.124;2023-07-29T04:21:31;3.65;;;3.38;;
23140;SDS011;11739;54.750;9.124;2023-07-29T04:23:57;3.50;;;3.20;;
23140;SDS011;11739;54.750;9.124;2023-07-29T04:26:22;4.45;;;4.07;;
23140;SDS011;11739;54.750;9.124;2023-07-29T04:28:47;3.33;;;3.03;;
23140;SDS011;11739;54.750;9.124;2023-07-29T04:31:13;4.05;;;3.50;;
23140;SDS011;11739;54.750;9.124;2023-07-29T04:33:38;3.42;;;3.13;;
23140;SDS011;11739;54.750;9.124;2023-07-29T04:36:03;3.83;;;3.50;;
23140;SDS011;11739;54.750;9.124;2023-07-29T04:38:32;4.47;;;3.75;;
23140;SDS011;11739;54.750;9.124;2023-07-29T04:40:58;3.92;;;3.63;;
23140;SDS011;11739;54.750;9.124;2023-07-29T04:43:26;3.67;;;3.35;;
23140;SDS011;11739;54.750;9.124;2023-07-29T04:45:52;3.50;;;3.10;;
23140;SDS011;11739;54.750;9.124;2023-07-29T04:48:17;3.20;;;2.90;;
23140;SDS011;11739;54.750;9.124;2023-07-29T04:50:42;2.95;;;2.75;;
23140;SDS011;11739;54.750;9.124;2023-07-29T04:53:08;3.67;;;3.38;;
23140;SDS011;11739;54.750;9.124;2023-07-29T04:55:33;3.45;;;3.10;;
23140;SDS011;11739;54.750;9.124;2023-07-29T04:57:58;3.65;;;3.35;;
23140;SDS011;11739;54.750;9.124;2023-07-29T05:00:23;4.40;;;3.30;;
23140;SDS011;11739;54.750;9.124;2023-07-29T05:02:49;3.30;;;3.10;;
23140;SDS011;11739;54.750;9.124;2023-07-29T05:05:14;2.90;;;2.60;;
23140;SDS011;11739;54.750;9.124;2023-07-29T05:07:39;2.88;;;2.67;;
23140;SDS011;11739;54.750;9.124;2023-07-29T05:10:05;3.35;;;2.97;;
23140;SDS011;11739;54.750;9.124;2023-07-29T05:12:31;3.20;;;2.90;;
23140;SDS011;11739;54.750;9.124;2023-07-29T05:14:56;3.10;;;2.90;;
23140;SDS011;11739;54.750;9.124;2023-07-29T05:17:21;3.30;;;3.10;;
23140;SDS011;11739;54.750;9.124;2023-07-29T05:19:46;3.63;;;3.33;;
23140;SDS011;11739;54.750;9.124;2023-07-29T05:22:12;3.90;;;3.08;;
23140;SDS011;11739;54.750;9.124;2023-07-29T05:24:37;2.97;;;2.78;;
23140;SDS011;11739;54.750;9.124;2023-07-29T05:27:02;2.92;;;2.72;;
23140;SDS011;11739;54.750;9.124;2023-07-29T05:29:28;4.13;;;2.97;;
23140;SDS011;11739;54.750;9.124;2023-07-29T05:31:53;2.70;;;2.50;;
23140;SDS011;11739;54.750;9.124;2023-07-29T05:34:18;3.03;;;2.83;;
23140;SDS011;11739;54.750;9.124;2023-07-29T05:36:44;3.28;;;2.90;;
23140;SDS011;11739;54.750;9.124;2023-07-29T05:39:09;2.92;;;2.72;;
23140;SDS011;11739;54.750;9.124;2023-07-29T05:41:34;2.65;;;2.45;;
23140;SDS011;11739;54.750;9.124;2023-07-29T05:43:59;4.30;;;2.50;;
23140;SDS011;11739;54.750;9.124;2023-07-29T05:46:25;2.65;;;2.45;;
23140;SDS011;11739;54.750;9.124;2023-07-29T05:48:51;2.90;;;2.70;;
23140;SDS011;11739;54.750;9.124;2023-07-29T05:51:16;3.33;;;3.03;;
23140;SDS011;11739;54.750;9.124;2023-07-29T05:53:41;3.30;;;3.00;;
23140;SDS011;11739;54.750;9.124;2023-07-29T05:56:07;2.55;;;2.10;;
23140;SDS011;11739;54.750;9.124;2023-07-29T05:58:32;3.28;;;2.60;;
23140;SDS011;11739;54.750;9.124;2023-07-29T06:00:57;2.63;;;2.42;;
23140;SDS011;11739;54.750;9.124;2023-07-29T06:03:23;2.60;;;2.40;;
23140;SDS011;11739;54.750;9.124;2023-07-29T06:05:48;2.58;;;2.38;;
23140;SDS011;11739;54.750;9.124;2023-07-29T06:08:14;2.53;;;2.33;;
23140;SDS011;11739;54.750;9.124;2023-07-29T06:10:39;2.47;;;2.28;;
23140;SDS011;11739;54.750;9.124;2023-07-29T06:13:04;2.42;;;2.25;;
23140;SDS011;11739;54.750;9.124;2023-07-29T06:15:30;2.55;;;2.35;;
23140;SDS011;11739;54.750;9.124;2023-07-29T06:17:55;2.50;;;2.30;;
23140;SDS011;11739;54.750;9.124;2023-07-29T06:20:20;2.95;;;2.75;;
23140;SDS011;11739;54.750;9.124;2023-07-29T06:22:46;2.15;;;2.05;;
23140;SDS011;11739;54.750;9.124;2023-07-29T06:25:11;2.30;;;2.20;;
23140;SDS011;11739;54.750;9.124;2023-07-29T06:27:36;2.10;;;2.00;;
23140;SDS011;11739;54.750;9.124;2023-07-29T06:30:02;3.33;;;3.03;;
23140;SDS011;11739;54.750;9.124;2023-07-29T06:32:27;4.78;;;3.60;;
23140;SDS011;11739;54.750;9.124;2023-07-29T06:34:52;3.85;;;3.55;;
23140;SDS011;11739;54.750;9.124;2023-07-29T06:37:18;4.13;;;3.67;;
23140;SDS011;11739;54.750;9.124;2023-07-29T06:39:43;5.72;;;4.05;;
23140;SDS011;11739;54.750;9.124;2023-07-29T06:42:08;3.92;;;3.60;;
23140;SDS011;11739;54.750;9.124;2023-07-29T06:44:33;3.95;;;3.60;;
23140;SDS011;11739;54.750;9.124;2023-07-29T06:46:59;5.20;;;4.20;;
23140;SDS011;11739;54.750;9.124;2023-07-29T06:49:24;4.38;;;3.97;;
23140;SDS011;11739;54.750;9.124;2023-07-29T06:51:49;5.75;;;4.47;;
23140;SDS011;11739;54.750;9.124;2023-07-29T06:54:16;4.85;;;4.45;;
23140;SDS011;11739;54.750;9.124;2023-07-29T06:56:41;5.05;;;4.65;;
23140;SDS011;11739;54.750;9.124;2023-07-29T06:59:06;3.50;;;3.20;;
23140;SDS011;11739;54.750;9.124;2023-07-29T07:01:32;5.10;;;3.50;;
23140;SDS011;11739;54.750;9.124;2023-07-29T07:03:58;5.40;;;3.70;;
23140;SDS011;11739;54.750;9.124;2023-07-29T07:06:23;3.50;;;3.20;;
23140;SDS011;11739;54.750;9.124;2023-07-29T07:08:49;3.80;;;3.50;;
23140;SDS011;11739;54.750;9.124;2023-07-29T07:11:14;3.42;;;3.10;;
23140;SDS011;11739;54.750;9.124;2023-07-29T07:13:39;3.45;;;3.15;;
23140;SDS011;11739;54.750;9.124;2023-07-29T07:16:05;4.57;;;2.92;;
23140;SDS011;11739;54.750;9.124;2023-07-29T07:18:30;2.50;;;2.30;;
23140;SDS011;11739;54.750;9.124;2023-07-29T07:20:55;5.15;;;2.40;;
23140;SDS011;11739;54.750;9.124;2023-07-29T07:23:20;2.70;;;2.50;;
23140;SDS011;11739;54.750;9.124;2023-07-29T07:25:46;3.33;;;2.42;;
23140;SDS011;11739;54.750;9.124;2023-07-29T07:28:11;3.22;;;2.40;;
23140;SDS011;11739;54.750;9.124;2023-07-29T07:30:40;3.13;;;2.60;;
23140;SDS011;11739;54.750;9.124;2023-07-29T07:33:05;2.95;;;2.65;;
23140;SDS011;11739;54.750;9.124;2023-07-29T07:35:31;3.40;;;2.53;;
23140;SDS011;11739;54.750;9.124;2023-07-29T07:37:56;3.17;;;2.72;;
23140;SDS011;11739;54.750;9.124;2023-07-29T07:40:21;3.30;;;3.00;;
23140;SDS011;11739;54.750;9.124;2023-07-29T07:42:47;2.60;;;2.40;;
23140;SDS011;11739;54.750;9.124;2023-07-29T07:45:12;3.03;;;2.60;;
23140;SDS011;11739;54.750;9.124;2023-07-29T07:47:37;3.15;;;2.85;;
23140;SDS011;11739;54.750;9.124;2023-07-29T07:50:03;3.20;;;2.30;;
23140;SDS011;11739;54.750;9.124;2023-07-29T07:52:28;3.10;;;2.80;;
23140;SDS011;11739;54.750;9.124;2023-07-29T07:54:54;2.90;;;2.60;;
23140;SDS011;11739;54.750;9.124;2023-07-29T07:57:22;3.97;;;3.67;;
23140;SDS011;11739;54.750;9.124;2023-07-29T07:59:48;7.20;;;3.40;;
23140;SDS011;11739;54.750;9.124;2023-07-29T08:02:13;2.95;;;2.53;;
23140;SDS011;11739;54.750;9.124;2023-07-29T08:04:38;3.08;;;2.72;;
23140;SDS011;11739;54.750;9.124;2023-07-29T08:07:04;2.47;;;2.28;;
23140;SDS011;11739;54.750;9.124;2023-07-29T08:09:29;3.75;;;2.92;;
23140;SDS011;11739;54.750;9.124;2023-07-29T08:11:54;3.65;;;2.78;;
23140;SDS011;11739;54.750;9.124;2023-07-29T08:14:20;4.28;;;3.72;;
23140;SDS011;11739;54.750;9.124;2023-07-29T08:16:45;4.05;;;2.83;;
23140;SDS011;11739;54.750;9.124;2023-07-29T08:19:12;3.33;;;2.85;;
23140;SDS011;11739;54.750;9.124;2023-07-29T08:21:37;4.10;;;3.42;;
23140;SDS011;11739;54.750;9.124;2023-07-29T08:24:02;3.35;;;3.03;;
23140;SDS011;11739;54.750;9.124;2023-07-29T08:26:27;3.97;;;3.47;;
23140;SDS011;11739;54.750;9.124;2023-07-29T08:28:53;6.88;;;4.13;;
23140;SDS011;11739;54.750;9.124;2023-07-29T08:31:18;4.18;;;3.65;;
23140;SDS011;11739;54.750;9.124;2023-07-29T08:33:43;4.32;;;3.92;;
23140;SDS011;11739;54.750;9.124;2023-07-29T08:36:09;3.63;;;3.33;;
23140;SDS011;11739;54.750;9.124;2023-07-29T08:38:34;3.70;;;3.40;;
23140;SDS011;11739;54.750;9.124;2023-07-29T08:43:36;5.43;;;4.93;;
23140;SDS011;11739;54.750;9.124;2023-07-29T08:46:03;6.70;;;5.20;;
23140;SDS011;11739;54.750;9.124;2023-07-29T08:48:31;6.32;;;5.72;;
23140;SDS011;11739;54.750;9.124;2023-07-29T08:51:07;6.72;;;5.75;;
23140;SDS011;11739;54.750;9.124;2023-07-29T08:53:37;5.80;;;5.20;;
23140;SDS011;11739;54.750;9.124;2023-07-29T08:56:02;8.90;;;5.40;;
23140;SDS011;11739;54.750;9.124;2023-07-29T08:58:28;5.53;;;5.03;;
23140;SDS011;11739;54.750;9.124;2023-07-29T09:00:54;4.90;;;4.32;;
23140;SDS011;11739;54.750;9.124;2023-07-29T09:03:19;6.40;;;5.30;;
23140;SDS011;11739;54.750;9.124;2023-07-29T09:05:45;6.53;;;5.15;;
23140;SDS011;11739;54.750;9.124;2023-07-29T09:08:11;5.68;;;4.60;;
23140;SDS011;11739;54.750;9.124;2023-07-29T09:10:37;7.60;;;5.03;;
23140;SDS011;11739;54.750;9.124;2023-07-29T09:13:02;5.22;;;4.72;;
23140;SDS011;11739;54.750;9.124;2023-07-29T09:15:28;5.13;;;4.65;;
23140;SDS011;11739;54.750;9.124;2023-07-29T09:17:55;6.47;;;5.32;;
23140;SDS011;11739;54.750;9.124;2023-07-29T09:20:24;7.30;;;5.53;;
23140;SDS011;11739;54.750;9.124;2023-07-29T09:22:50;5.25;;;4.60;;
23140;SDS011;11739;54.750;9.124;2023-07-29T09:25:15;6.50;;;5.93;;
23140;SDS011;11739;54.750;9.124;2023-07-29T09:27:40;6.25;;;5.20;;
23140;SDS011;11739;54.750;9.124;2023-07-29T09:30:06;6.35;;;5.53;;
23140;SDS011;11739;54.750;9.124;2023-07-29T09:32:32;8.30;;;5.10;;
23140;SDS011;11739;54.750;9.124;2023-07-29T09:34:57;4.88;;;4.38;;
23140;SDS011;11739;54.750;9.124;2023-07-29T09:37:23;5.28;;;4.85;;
23140;SDS011;11739;54.750;9.124;2023-07-29T09:39:49;6.38;;;5.75;;
23140;SDS011;11739;54.750;9.124;2023-07-29T09:42:18;6.43;;;5.72;;
23140;SDS011;11739;54.750;9.124;2023-07-29T09:44:48;6.35;;;5.63;;
23140;SDS011;11739;54.750;9.124;2023-07-29T09:47:21;7.75;;;6.18;;
23140;SDS011;11739;54.750;9.124;2023-07-29T09:49:46;6.72;;;6.03;;
23140;SDS011;11739;54.750;9.124;2023-07-29T09:52:13;7.25;;;6.50;;
23140;SDS011;11739;54.750;9.124;2023-07-29T09:54:39;6.80;;;6.05;;
23140;SDS011;11739;54.750;9.124;2023-07-29T09:57:06;7.55;;;6.03;;
23140;SDS011;11739;54.750;9.124;2023-07-29T09:59:34;5.68;;;4.75;;
23140;SDS011;11739;54.750;9.124;2023-07-29T10:04:35;5.97;;;4.93;;
23140;SDS011;11739;54.750;9.124;2023-07-29T10:07:01;6.38;;;4.32;;
23140;SDS011;11739;54.750;9.124;2023-07-29T10:09:26;4.10;;;3.65;;
23140;SDS011;11739;54.750;9.124;2023-07-29T10:11:52;7.20;;;5.20;;
23140;SDS011;11739;54.750;9.124;2023-07-29T10:14:17;5.78;;;4.75;;
23140;SDS011;11739;54.750;9.124;2023-07-29T10:16:43;4.97;;;4.47;;
23140;SDS011;11739;54.750;9.124;2023-07-29T10:19:08;5.65;;;4.70;;
23140;SDS011;11739;54.750;9.124;2023-07-29T10:21:35;5.50;;;4.80;;
23140;SDS011;11739;54.750;9.124;2023-07-29T10:24:02;5.25;;;4.70;;
23140;SDS011;11739;54.750;9.124;2023-07-29T10:26:29;5.18;;;4.63;;
23140;SDS011;11739;54.750;9.124;2023-07-29T10:28:56;5.60;;;5.10;;
23140;SDS011;11739;54.750;9.124;2023-07-29T10:31:24;9.68;;;6.07;;
23140;SDS011;11739;54.750;9.124;2023-07-29T10:33:49;6.40;;;5.68;;
23140;SDS011;11739;54.750;9.124;2023-07-29T10:36:15;10.98;;;5.53;;
23140;SDS011;11739;54.750;9.124;2023-07-29T10:38:40;8.18;;;4.43;;
23140;SDS011;11739;54.750;9.124;2023-07-29T10:41:05;5.88;;;5.05;;
23140;SDS011;11739;54.750;9.124;2023-07-29T10:43:32;5.95;;;4.30;;
23140;SDS011;11739;54.750;9.124;2023-07-29T10:45:59;5.90;;;4.43;;
23140;SDS011;11739;54.750;9.124;2023-07-29T10:51:35;6.28;;;4.80;;
23140;SDS011;11739;54.750;9.124;2023-07-29T10:56:31;4.97;;;4.50;;
23140;SDS011;11739;54.750;9.124;2023-07-29T10:58:59;5.93;;;4.00;;
23140;SDS011;11739;54.750;9.124;2023-07-29T11:01:30;5.70;;;3.90;;
23140;SDS011;11739;54.750;9.124;2023-07-29T11:04:45;4.90;;;3.50;;
23140;SDS011;11739;54.750;9.124;2023-07-29T11:09:38;5.05;;;3.15;;
23140;SDS011;11739;54.750;9.124;2023-07-29T11:15:00;4.07;;;3.47;;
23140;SDS011;11739;54.750;9.124;2023-07-29T11:17:28;6.78;;;3.20;;
23140;SDS011;11739;54.750;9.124;2023-07-29T11:19:55;4.80;;;2.72;;
23140;SDS011;11739;54.750;9.124;2023-07-29T11:22:22;6.15;;;3.00;;
23140;SDS011;11739;54.750;9.124;2023-07-29T11:24:48;8.45;;;2.70;;
23140;SDS011;11739;54.750;9.124;2023-07-29T11:27:14;5.07;;;2.50;;
23140;SDS011;11739;54.750;9.124;2023-07-29T11:29:39;4.28;;;2.45;;
23140;SDS011;11739;54.750;9.124;2023-07-29T11:32:04;5.30;;;2.65;;
23140;SDS011;11739;54.750;9.124;2023-07-29T11:34:33;5.25;;;2.70;;
23140;SDS011;11739;54.750;9.124;2023-07-29T11:36:58;3.20;;;2.40;;
23140;SDS011;11739;54.750;9.124;2023-07-29T11:39:23;3.97;;;2.53;;
23140;SDS011;11739;54.750;9.124;2023-07-29T11:41:48;7.50;;;3.40;;
23140;SDS011;11739;54.750;9.124;2023-07-29T11:44:17;5.05;;;3.17;;
23140;SDS011;11739;54.750;9.124;2023-07-29T11:46:43;5.38;;;3.10;;
23140;SDS011;11739;54.750;9.124;2023-07-29T11:49:08;6.10;;;3.33;;
23140;SDS011;11739;54.750;9.124;2023-07-29T11:51:34;3.83;;;2.65;;
23140;SDS011;11739;54.750;9.124;2023-07-29T11:53:59;3.97;;;2.80;;
23140;SDS011;11739;54.750;9.124;2023-07-29T11:56:25;3.78;;;2.80;;
23140;SDS011;11739;54.750;9.124;2023-07-29T11:58:50;3.50;;;2.60;;
23140;SDS011;11739;54.750;9.124;2023-07-29T12:01:15;3.55;;;2.42;;
23140;SDS011;11739;54.750;9.124;2023-07-29T12:03:40;4.50;;;2.42;;
23140;SDS011;11739;54.750;9.124;2023-07-29T12:06:06;6.30;;;2.78;;
23140;SDS011;11739;54.750;9.124;2023-07-29T12:08:31;5.60;;;2.65;;
23140;SDS011;11739;54.750;9.124;2023-07-29T12:10:57;7.25;;;2.33;;
23140;SDS011;11739;54.750;9.124;2023-07-29T12:13:25;5.50;;;2.97;;
23140;SDS011;11739;54.750;9.124;2023-07-29T12:15:50;4.07;;;2.55;;
23140;SDS011;11739;54.750;9.124;2023-07-29T12:18:16;5.35;;;3.00;;
23140;SDS011;11739;54.750;9.124;2023-07-29T12:20:41;4.50;;;2.40;;
23140;SDS011;11739;54.750;9.124;2023-07-29T12:23:07;4.32;;;2.40;;
23140;SDS011;11739;54.750;9.124;2023-07-29T12:25:32;6.82;;;2.42;;
23140;SDS011;11739;54.750;9.124;2023-07-29T12:28:04;3.67;;;2.10;;
23140;SDS011;11739;54.750;9.124;2023-07-29T12:30:30;4.43;;;2.65;;
23140;SDS011;11739;54.750;9.124;2023-07-29T12:32:55;3.75;;;2.60;;
23140;SDS011;11739;54.750;9.124;2023-07-29T12:35:20;5.60;;;2.80;;
23140;SDS011;11739;54.750;9.124;2023-07-29T12:37:46;6.82;;;3.00;;
23140;SDS011;11739;54.750;9.124;2023-07-29T12:40:21;4.85;;;2.92;;
23140;SDS011;11739;54.750;9.124;2023-07-29T12:42:49;5.50;;;3.05;;
23140;SDS011;11739;54.750;9.124;2023-07-29T12:45:15;4.53;;;2.70;;
23140;SDS011;11739;54.750;9.124;2023-07-29T12:47:41;5.07;;;3.10;;
23140;SDS011;11739;54.750;9.124;2023-07-29T12:50:06;5.15;;;3.13;;
23140;SDS011;11739;54.750;9.124;2023-07-29T12:52:31;6.05;;;3.50;;
23140;SDS011;11739;54.750;9.124;2023-07-29T12:54:57;4.82;;;3.10;;
23140;SDS011;11739;54.750;9.124;2023-07-29T12:57:22;10.00;;;3.08;;
23140;SDS011;11739;54.750;9.124;2023-07-29T12:59:47;4.57;;;2.20;;
23140;SDS011;11739;54.750;9.124;2023-07-29T13:02:13;6.25;;;3.28;;
23140;SDS011;11739;54.750;9.124;2023-07-29T13:04:38;7.35;;;3.08;;
23140;SDS011;11739;54.750;9.124;2023-07-29T13:07:03;5.97;;;2.85;;
23140;SDS011;11739;54.750;9.124;2023-07-29T13:09:29;6.18;;;2.50;;
23140;SDS011;11739;54.750;9.124;2023-07-29T13:11:54;5.80;;;2.97;;
23140;SDS011;11739;54.750;9.124;2023-07-29T13:14:20;5.55;;;3.20;;
23140;SDS011;11739;54.750;9.124;2023-07-29T13:16:45;5.90;;;2.70;;
23140;SDS011;11739;54.750;9.124;2023-07-29T13:19:10;4.97;;;2.35;;
23140;SDS011;11739;54.750;9.124;2023-07-29T13:21:35;4.20;;;2.42;;
23140;SDS011;11739;54.750;9.124;2023-07-29T13:24:01;5.30;;;2.88;;
23140;SDS011;11739;54.750;9.124;2023-07-29T13:26:26;5.03;;;2.47;;
23140;SDS011;11739;54.750;9.124;2023-07-29T13:28:51;3.42;;;2.70;;
23140;SDS011;11739;54.750;9.124;2023-07-29T13:31:17;5.93;;;2.60;;
23140;SDS011;11739;54.750;9.124;2023-07-29T13:33:42;5.68;;;2.47;;
23140;SDS011;11739;54.750;9.124;2023-07-29T13:36:07;3.00;;;2.60;;
23140;SDS011;11739;54.750;9.124;2023-07-29T13:38:33;4.82;;;2.72;;
23140;SDS011;11739;54.750;9.124;2023-07-29T13:40:58;4.80;;;3.05;;
23140;SDS011;11739;54.750;9.124;2023-07-29T13:43:23;6.78;;;3.08;;
23140;SDS011;11739;54.750;9.124;2023-07-29T13:45:48;5.05;;;3.03;;
23140;SDS011;11739;54.750;9.124;2023-07-29T13:48:14;4.10;;;3.10;;
23140;SDS011;11739;54.750;9.124;2023-07-29T13:50:39;5.22;;;3.00;;
23140;SDS011;11739;54.750;9.124;2023-07-29T13:53:04;4.07;;;2.63;;
23140;SDS011;11739;54.750;9.124;2023-07-29T13:55:30;6.60;;;2.80;;
23140;SDS011;11739;54.750;9.124;2023-07-29T13:57:55;6.68;;;3.15;;
23140;SDS011;11739;54.750;9.124;2023-07-29T14:00:20;5.78;;;3.90;;
23140;SDS011;11739;54.750;9.124;2023-07-29T14:02:46;7.38;;;3.65;;
23140;SDS011;11739;54.750;9.124;2023-07-29T14:05:11;6.15;;;3.33;;
23140;SDS011;11739;54.750;9.124;2023-07-29T14:07:36;5.63;;;3.60;;
23140;SDS011;11739;54.750;9.124;2023-07-29T14:10:02;6.13;;;3.30;;
23140;SDS011;11739;54.750;9.124;2023-07-29T14:12:27;6.43;;;4.53;;
23140;SDS011;11739;54.750;9.124;2023-07-29T14:14:52;6.25;;;3.67;;
23140;SDS011;11739;54.750;9.124;2023-07-29T14:17:18;5.78;;;3.05;;
23140;SDS011;11739;54.750;9.124;2023-07-29T14:19:43;3.95;;;2.40;;
23140;SDS011;11739;54.750;9.124;2023-07-29T14:22:08;7.28;;;3.40;;
23140;SDS011;11739;54.750;9.124;2023-07-29T14:24:34;5.50;;;3.00;;
23140;SDS011;11739;54.750;9.124;2023-07-29T14:26:59;3.47;;;2.33;;
23140;SDS011;11739;54.750;9.124;2023-07-29T14:29:24;4.50;;;2.90;;
23140;SDS011;11739;54.750;9.124;2023-07-29T14:31:50;4.25;;;2.20;;
23140;SDS011;11739;54.750;9.124;2023-07-29T14:34:15;5.10;;;2.25;;
23140;SDS011;11739;54.750;9.124;2023-07-29T14:36:40;4.47;;;2.08;;
23140;SDS011;11739;54.750;9.124;2023-07-29T14:39:06;5.07;;;2.45;;
23140;SDS011;11739;54.750;9.124;2023-07-29T14:41:31;3.60;;;2.20;;
23140;SDS011;11739;54.750;9.124;2023-07-29T14:43:56;4.90;;;2.20;;
23140;SDS011;11739;54.750;9.124;2023-07-29T14:46:22;5.45;;;2.17;;
23140;SDS011;11739;54.750;9.124;2023-07-29T14:48:47;2.55;;;2.10;;
23140;SDS011;11739;54.750;9.124;2023-07-29T14:51:12;3.55;;;2.20;;
23140;SDS011;11739;54.750;9.124;2023-07-29T14:53:38;3.30;;;2.10;;
23140;SDS011;11739;54.750;9.124;2023-07-29T14:56:03;3.15;;;2.13;;
23140;SDS011;11739;54.750;9.124;2023-07-29T14:58:29;7.00;;;2.55;;
23140;SDS011;11739;54.750;9.124;2023-07-29T15:00:54;5.25;;;2.63;;
23140;SDS011;11739;54.750;9.124;2023-07-29T15:03:19;4.80;;;2.05;;
23140;SDS011;11739;54.750;9.124;2023-07-29T15:05:44;6.35;;;2.35;;
23140;SDS011;11739;54.750;9.124;2023-07-29T15:08:10;4.28;;;2.30;;